sensor_id;sensor_type;location;lat;lon;timestamp;temperature;humidity
46754;DHT22;32500;50.620;3.400;2023-07-13T00:01:26;19.40;71.10
46754;DHT22;32500;50.620;3.400;2023-07-13T00:03:52;19.40;71.00
46754;DHT22;32500;50.620;3.400;2023-07-13T00:06:18;19.30;71.70
46754;DHT22;32500;50.620;3.400;2023-07-13T00:08:45;19.30;71.10
46754;DHT22;32500;50.620;3.400;2023-07-13T00:11:11;19.40;72.20
46754;DHT22;32500;50.620;3.400;2023-07-13T00:13:37;19.30;71.20
46754;DHT22;32500;50.620;3.400;2023-07-13T00:16:04;19.30;71.20
46754;DHT22;32500;50.620;3.400;2023-07-13T00:18:30;19.30;71.90
46754;DHT22;32500;50.620;3.400;2023-07-13T00:20:57;19.20;71.30
46754;DHT22;32500;50.620;3.400;2023-07-13T00:23:37;19.30;71.50
46754;DHT22;32500;50.620;3.400;2023-07-13T00:26:07;19.20;71.90
46754;DHT22;32500;50.620;3.400;2023-07-13T00:28:34;19.20;72.40
46754;DHT22;32500;50.620;3.400;2023-07-13T00:31:00;19.20;71.50
46754;DHT22;32500;50.620;3.400;2023-07-13T00:33:28;19.20;72.80
46754;DHT22;32500;50.620;3.400;2023-07-13T00:35:54;19.10;72.60
46754;DHT22;32500;50.620;3.400;2023-07-13T00:38:20;19.10;72.70
46754;DHT22;32500;50.620;3.400;2023-07-13T00:40:46;19.10;71.70
46754;DHT22;32500;50.620;3.400;2023-07-13T00:43:18;19.10;71.80
46754;DHT22;32500;50.620;3.400;2023-07-13T00:48:17;19.10;73.20
46754;DHT22;32500;50.620;3.400;2023-07-13T00:50:45;19.00;72.50
46754;DHT22;32500;50.620;3.400;2023-07-13T00:53:13;19.00;72.00
46754;DHT22;32500;50.620;3.400;2023-07-13T00:55:39;19.00;72.60
46754;DHT22;32500;50.620;3.400;2023-07-13T00:58:06;19.00;72.70
46754;DHT22;32500;50.620;3.400;2023-07-13T01:00:36;19.00;72.80
46754;DHT22;32500;50.620;3.400;2023-07-13T01:03:03;19.00;72.50
46754;DHT22;32500;50.620;3.400;2023-07-13T01:05:31;18.90;72.10
46754;DHT22;32500;50.620;3.400;2023-07-13T01:07:57;18.90;73.10
46754;DHT22;32500;50.620;3.400;2023-07-13T01:10:24;18.90;72.40
46754;DHT22;32500;50.620;3.400;2023-07-13T01:12:51;18.90;72.20
46754;DHT22;32500;50.620;3.400;2023-07-13T01:15:56;18.90;72.90
46754;DHT22;32500;50.620;3.400;2023-07-13T01:18:26;18.90;72.50
46754;DHT22;32500;50.620;3.400;2023-07-13T01:20:57;18.80;72.30
46754;DHT22;32500;50.620;3.400;2023-07-13T01:23:25;18.80;72.40
46754;DHT22;32500;50.620;3.400;2023-07-13T01:25:53;18.80;72.70
46754;DHT22;32500;50.620;3.400;2023-07-13T01:28:21;18.80;72.50
46754;DHT22;32500;50.620;3.400;2023-07-13T01:30:47;18.80;72.50
46754;DHT22;32500;50.620;3.400;2023-07-13T01:33:16;18.80;72.40
46754;DHT22;32500;50.620;3.400;2023-07-13T01:35:43;18.80;72.40
46754;DHT22;32500;50.620;3.400;2023-07-13T01:38:10;18.70;72.70
46754;DHT22;32500;50.620;3.400;2023-07-13T01:40:37;18.70;73.00
46754;DHT22;32500;50.620;3.400;2023-07-13T01:43:04;18.70;73.30
46754;DHT22;32500;50.620;3.400;2023-07-13T01:45:29;18.70;73.10
46754;DHT22;32500;50.620;3.400;2023-07-13T01:47:55;18.70;73.50
46754;DHT22;32500;50.620;3.400;2023-07-13T01:50:21;18.70;73.80
46754;DHT22;32500;50.620;3.400;2023-07-13T01:52:47;18.70;73.20
46754;DHT22;32500;50.620;3.400;2023-07-13T01:55:13;18.70;73.40
46754;DHT22;32500;50.620;3.400;2023-07-13T01:57:39;18.60;73.20
46754;DHT22;32500;50.620;3.400;2023-07-13T02:00:06;18.60;73.10
46754;DHT22;32500;50.620;3.400;2023-07-13T02:02:33;18.60;73.00
46754;DHT22;32500;50.620;3.400;2023-07-13T02:04:58;18.60;74.60
46754;DHT22;32500;50.620;3.400;2023-07-13T02:07:24;18.60;73.80
46754;DHT22;32500;50.620;3.400;2023-07-13T02:09:50;18.60;73.40
46754;DHT22;32500;50.620;3.400;2023-07-13T02:12:15;18.60;73.90
46754;DHT22;32500;50.620;3.400;2023-07-13T02:14:41;18.60;73.50
46754;DHT22;32500;50.620;3.400;2023-07-13T02:17:07;18.50;73.70
46754;DHT22;32500;50.620;3.400;2023-07-13T02:19:32;18.50;73.40
46754;DHT22;32500;50.620;3.400;2023-07-13T02:21:58;18.50;74.30
46754;DHT22;32500;50.620;3.400;2023-07-13T02:24:24;18.50;73.80
46754;DHT22;32500;50.620;3.400;2023-07-13T02:26:50;18.50;74.00
46754;DHT22;32500;50.620;3.400;2023-07-13T02:29:15;18.50;73.70
46754;DHT22;32500;50.620;3.400;2023-07-13T02:31:41;18.50;73.30
46754;DHT22;32500;50.620;3.400;2023-07-13T02:34:07;18.50;73.40
46754;DHT22;32500;50.620;3.400;2023-07-13T02:36:33;18.50;73.50
46754;DHT22;32500;50.620;3.400;2023-07-13T02:39:01;18.40;73.40
46754;DHT22;32500;50.620;3.400;2023-07-13T02:41:28;18.40;73.40
46754;DHT22;32500;50.620;3.400;2023-07-13T02:43:54;18.40;73.20
46754;DHT22;32500;50.620;3.400;2023-07-13T02:46:28;18.40;73.80
46754;DHT22;32500;50.620;3.400;2023-07-13T02:48:54;18.40;73.50
46754;DHT22;32500;50.620;3.400;2023-07-13T02:51:20;18.40;73.70
46754;DHT22;32500;50.620;3.400;2023-07-13T02:53:46;18.40;74.00
46754;DHT22;32500;50.620;3.400;2023-07-13T02:56:12;18.40;74.60
46754;DHT22;32500;50.620;3.400;2023-07-13T02:58:38;18.30;73.80
46754;DHT22;32500;50.620;3.400;2023-07-13T03:01:09;18.40;74.00
46754;DHT22;32500;50.620;3.400;2023-07-13T03:03:35;18.40;73.90
46754;DHT22;32500;50.620;3.400;2023-07-13T03:06:02;18.30;73.70
46754;DHT22;32500;50.620;3.400;2023-07-13T03:08:28;18.30;73.90
46754;DHT22;32500;50.620;3.400;2023-07-13T03:11:06;18.30;75.00
46754;DHT22;32500;50.620;3.400;2023-07-13T03:13:33;18.20;74.80
46754;DHT22;32500;50.620;3.400;2023-07-13T03:15:59;18.30;75.10
46754;DHT22;32500;50.620;3.400;2023-07-13T03:18:27;18.30;73.70
46754;DHT22;32500;50.620;3.400;2023-07-13T03:20:53;18.20;73.70
46754;DHT22;32500;50.620;3.400;2023-07-13T03:23:20;18.20;74.00
46754;DHT22;32500;50.620;3.400;2023-07-13T03:25:46;18.20;73.90
46754;DHT22;32500;50.620;3.400;2023-07-13T03:28:12;18.20;73.80
46754;DHT22;32500;50.620;3.400;2023-07-13T03:30:38;18.20;74.90
46754;DHT22;32500;50.620;3.400;2023-07-13T03:33:05;18.20;77.20
46754;DHT22;32500;50.620;3.400;2023-07-13T03:35:30;18.10;74.40
46754;DHT22;32500;50.620;3.400;2023-07-13T03:37:58;18.10;75.00
46754;DHT22;32500;50.620;3.400;2023-07-13T03:40:25;18.10;74.10
46754;DHT22;32500;50.620;3.400;2023-07-13T03:42:52;18.10;74.70
46754;DHT22;32500;50.620;3.400;2023-07-13T03:45:18;18.10;75.00
46754;DHT22;32500;50.620;3.400;2023-07-13T03:47:44;18.10;74.30
46754;DHT22;32500;50.620;3.400;2023-07-13T03:50:10;18.10;74.70
46754;DHT22;32500;50.620;3.400;2023-07-13T03:52:36;18.10;75.50
46754;DHT22;32500;50.620;3.400;2023-07-13T03:55:02;18.10;75.00
46754;DHT22;32500;50.620;3.400;2023-07-13T03:57:30;18.00;74.30
46754;DHT22;32500;50.620;3.400;2023-07-13T03:59:56;18.10;77.00
46754;DHT22;32500;50.620;3.400;2023-07-13T04:02:22;18.00;74.30
46754;DHT22;32500;50.620;3.400;2023-07-13T04:04:47;18.00;76.80
46754;DHT22;32500;50.620;3.400;2023-07-13T04:07:13;18.00;74.60
46754;DHT22;32500;50.620;3.400;2023-07-13T04:09:39;18.00;74.50
46754;DHT22;32500;50.620;3.400;2023-07-13T04:12:05;18.00;74.80
46754;DHT22;32500;50.620;3.400;2023-07-13T04:14:31;18.10;74.40
46754;DHT22;32500;50.620;3.400;2023-07-13T04:16:56;18.10;74.70
46754;DHT22;32500;50.620;3.400;2023-07-13T04:19:23;18.10;74.70
46754;DHT22;32500;50.620;3.400;2023-07-13T04:21:49;18.10;74.30
46754;DHT22;32500;50.620;3.400;2023-07-13T04:24:15;18.10;74.10
46754;DHT22;32500;50.620;3.400;2023-07-13T04:26:40;18.10;74.30
46754;DHT22;32500;50.620;3.400;2023-07-13T04:29:07;18.10;75.00
46754;DHT22;32500;50.620;3.400;2023-07-13T04:31:33;18.20;74.90
46754;DHT22;32500;50.620;3.400;2023-07-13T04:33:59;18.20;73.90
46754;DHT22;32500;50.620;3.400;2023-07-13T04:36:25;18.20;75.10
46754;DHT22;32500;50.620;3.400;2023-07-13T04:38:54;18.20;74.40
46754;DHT22;32500;50.620;3.400;2023-07-13T04:41:20;18.20;73.80
46754;DHT22;32500;50.620;3.400;2023-07-13T04:43:49;18.20;75.00
46754;DHT22;32500;50.620;3.400;2023-07-13T04:46:16;18.20;74.10
46754;DHT22;32500;50.620;3.400;2023-07-13T04:48:46;18.20;73.60
46754;DHT22;32500;50.620;3.400;2023-07-13T04:51:12;18.30;73.70
46754;DHT22;32500;50.620;3.400;2023-07-13T04:53:38;18.30;73.40
46754;DHT22;32500;50.620;3.400;2023-07-13T04:56:04;18.30;74.50
46754;DHT22;32500;50.620;3.400;2023-07-13T04:58:30;18.30;75.30
46754;DHT22;32500;50.620;3.400;2023-07-13T05:01:05;18.30;74.10
46754;DHT22;32500;50.620;3.400;2023-07-13T05:03:32;18.40;73.50
46754;DHT22;32500;50.620;3.400;2023-07-13T05:06:03;18.40;73.20
46754;DHT22;32500;50.620;3.400;2023-07-13T05:08:29;18.40;73.50
46754;DHT22;32500;50.620;3.400;2023-07-13T05:10:55;18.50;73.60
46754;DHT22;32500;50.620;3.400;2023-07-13T05:13:21;18.50;75.00
46754;DHT22;32500;50.620;3.400;2023-07-13T05:15:58;18.50;73.10
46754;DHT22;32500;50.620;3.400;2023-07-13T05:18:24;18.50;73.20
46754;DHT22;32500;50.620;3.400;2023-07-13T05:21:05;18.50;72.60
46754;DHT22;32500;50.620;3.400;2023-07-13T05:23:33;18.60;74.30
46754;DHT22;32500;50.620;3.400;2023-07-13T05:26:00;18.60;73.10
46754;DHT22;32500;50.620;3.400;2023-07-13T05:28:27;18.70;73.00
46754;DHT22;32500;50.620;3.400;2023-07-13T05:30:53;18.70;72.50
46754;DHT22;32500;50.620;3.400;2023-07-13T05:33:22;18.70;72.40
46754;DHT22;32500;50.620;3.400;2023-07-13T05:35:48;18.70;73.10
46754;DHT22;32500;50.620;3.400;2023-07-13T05:38:14;18.70;73.90
46754;DHT22;32500;50.620;3.400;2023-07-13T05:40:42;18.80;72.10
46754;DHT22;32500;50.620;3.400;2023-07-13T05:43:07;18.80;71.90
46754;DHT22;32500;50.620;3.400;2023-07-13T05:45:33;18.80;72.00
46754;DHT22;32500;50.620;3.400;2023-07-13T05:47:59;18.80;73.50
46754;DHT22;32500;50.620;3.400;2023-07-13T05:50:26;18.90;72.70
46754;DHT22;32500;50.620;3.400;2023-07-13T05:52:52;18.90;72.10
46754;DHT22;32500;50.620;3.400;2023-07-13T05:55:18;18.90;72.10
46754;DHT22;32500;50.620;3.400;2023-07-13T05:57:43;18.90;72.70
46754;DHT22;32500;50.620;3.400;2023-07-13T06:00:10;19.00;71.70
46754;DHT22;32500;50.620;3.400;2023-07-13T06:02:36;19.00;71.90
46754;DHT22;32500;50.620;3.400;2023-07-13T06:05:02;19.00;72.00
46754;DHT22;32500;50.620;3.400;2023-07-13T06:07:27;19.00;72.40
46754;DHT22;32500;50.620;3.400;2023-07-13T06:09:53;19.00;72.00
46754;DHT22;32500;50.620;3.400;2023-07-13T06:12:19;19.10;71.50
46754;DHT22;32500;50.620;3.400;2023-07-13T06:14:44;19.10;72.20
46754;DHT22;32500;50.620;3.400;2023-07-13T06:17:10;19.10;73.30
46754;DHT22;32500;50.620;3.400;2023-07-13T06:19:36;19.10;72.40
46754;DHT22;32500;50.620;3.400;2023-07-13T06:22:02;19.20;74.60
46754;DHT22;32500;50.620;3.400;2023-07-13T06:24:28;19.30;75.00
46754;DHT22;32500;50.620;3.400;2023-07-13T06:26:55;19.30;73.20
46754;DHT22;32500;50.620;3.400;2023-07-13T06:29:21;19.30;72.80
46754;DHT22;32500;50.620;3.400;2023-07-13T06:31:46;19.30;71.80
46754;DHT22;32500;50.620;3.400;2023-07-13T06:34:12;19.30;71.20
46754;DHT22;32500;50.620;3.400;2023-07-13T06:36:38;19.30;72.00
46754;DHT22;32500;50.620;3.400;2023-07-13T06:39:04;19.30;71.10
46754;DHT22;32500;50.620;3.400;2023-07-13T06:41:30;19.40;71.10
46754;DHT22;32500;50.620;3.400;2023-07-13T06:43:56;19.40;71.60
46754;DHT22;32500;50.620;3.400;2023-07-13T06:46:22;19.40;70.60
46754;DHT22;32500;50.620;3.400;2023-07-13T06:48:48;19.40;71.00
46754;DHT22;32500;50.620;3.400;2023-07-13T06:51:14;19.40;70.80
46754;DHT22;32500;50.620;3.400;2023-07-13T06:53:40;19.50;70.60
46754;DHT22;32500;50.620;3.400;2023-07-13T06:56:06;19.50;70.90
46754;DHT22;32500;50.620;3.400;2023-07-13T06:58:34;19.50;71.80
46754;DHT22;32500;50.620;3.400;2023-07-13T07:01:00;19.60;71.70
46754;DHT22;32500;50.620;3.400;2023-07-13T07:03:26;19.60;70.80
46754;DHT22;32500;50.620;3.400;2023-07-13T07:05:51;19.60;70.80
46754;DHT22;32500;50.620;3.400;2023-07-13T07:08:17;19.60;70.20
46754;DHT22;32500;50.620;3.400;2023-07-13T07:10:43;19.70;70.40
46754;DHT22;32500;50.620;3.400;2023-07-13T07:13:09;19.70;70.00
46754;DHT22;32500;50.620;3.400;2023-07-13T07:15:35;19.80;74.30
46754;DHT22;32500;50.620;3.400;2023-07-13T07:18:01;19.80;74.70
46754;DHT22;32500;50.620;3.400;2023-07-13T07:20:27;19.80;71.40
46754;DHT22;32500;50.620;3.400;2023-07-13T07:22:53;19.90;71.30
46754;DHT22;32500;50.620;3.400;2023-07-13T07:25:19;19.90;70.60
46754;DHT22;32500;50.620;3.400;2023-07-13T07:27:45;19.90;71.50
46754;DHT22;32500;50.620;3.400;2023-07-13T07:30:11;20.00;70.60
46754;DHT22;32500;50.620;3.400;2023-07-13T07:32:37;20.00;71.30
46754;DHT22;32500;50.620;3.400;2023-07-13T07:35:03;20.00;71.00
46754;DHT22;32500;50.620;3.400;2023-07-13T07:37:29;20.10;70.80
46754;DHT22;32500;50.620;3.400;2023-07-13T07:39:54;20.10;72.10
46754;DHT22;32500;50.620;3.400;2023-07-13T07:42:20;20.20;72.20
46754;DHT22;32500;50.620;3.400;2023-07-13T07:44:46;20.30;71.40
46754;DHT22;32500;50.620;3.400;2023-07-13T07:47:12;20.40;71.40
46754;DHT22;32500;50.620;3.400;2023-07-13T07:49:37;20.40;70.00
46754;DHT22;32500;50.620;3.400;2023-07-13T07:52:04;20.40;69.70
46754;DHT22;32500;50.620;3.400;2023-07-13T07:54:30;20.50;70.90
46754;DHT22;32500;50.620;3.400;2023-07-13T07:56:55;20.50;70.70
46754;DHT22;32500;50.620;3.400;2023-07-13T07:59:21;20.60;69.30
46754;DHT22;32500;50.620;3.400;2023-07-13T08:01:47;20.70;70.50
46754;DHT22;32500;50.620;3.400;2023-07-13T08:04:16;20.70;69.60
46754;DHT22;32500;50.620;3.400;2023-07-13T08:06:42;20.80;70.10
46754;DHT22;32500;50.620;3.400;2023-07-13T08:09:07;20.80;69.80
46754;DHT22;32500;50.620;3.400;2023-07-13T08:11:34;20.80;69.20
46754;DHT22;32500;50.620;3.400;2023-07-13T08:14:00;20.90;68.70
46754;DHT22;32500;50.620;3.400;2023-07-13T08:16:26;20.90;70.50
46754;DHT22;32500;50.620;3.400;2023-07-13T08:18:52;21.00;69.30
46754;DHT22;32500;50.620;3.400;2023-07-13T08:21:17;21.00;69.10
46754;DHT22;32500;50.620;3.400;2023-07-13T08:23:45;21.10;69.60
46754;DHT22;32500;50.620;3.400;2023-07-13T08:26:11;21.10;69.30
46754;DHT22;32500;50.620;3.400;2023-07-13T08:28:37;21.20;69.50
46754;DHT22;32500;50.620;3.400;2023-07-13T08:31:04;21.20;68.70
46754;DHT22;32500;50.620;3.400;2023-07-13T08:33:30;21.30;68.80
46754;DHT22;32500;50.620;3.400;2023-07-13T08:35:56;21.30;68.50
46754;DHT22;32500;50.620;3.400;2023-07-13T08:38:22;21.40;68.80
46754;DHT22;32500;50.620;3.400;2023-07-13T08:40:55;21.40;68.50
46754;DHT22;32500;50.620;3.400;2023-07-13T08:43:30;21.40;68.40
46754;DHT22;32500;50.620;3.400;2023-07-13T08:46:35;21.50;68.40
46754;DHT22;32500;50.620;3.400;2023-07-13T08:49:15;21.50;67.90
46754;DHT22;32500;50.620;3.400;2023-07-13T08:52:03;21.50;68.10
46754;DHT22;32500;50.620;3.400;2023-07-13T08:54:36;21.60;67.90
46754;DHT22;32500;50.620;3.400;2023-07-13T08:57:12;21.60;67.90
46754;DHT22;32500;50.620;3.400;2023-07-13T08:59:38;21.60;67.60
46754;DHT22;32500;50.620;3.400;2023-07-13T09:02:19;21.70;67.90
46754;DHT22;32500;50.620;3.400;2023-07-13T09:10:46;21.70;67.60
46754;DHT22;32500;50.620;3.400;2023-07-13T09:13:23;21.80;67.40
46754;DHT22;32500;50.620;3.400;2023-07-13T09:15:53;21.90;67.40
46754;DHT22;32500;50.620;3.400;2023-07-13T09:18:36;22.00;67.20
46754;DHT22;32500;50.620;3.400;2023-07-13T09:21:03;22.00;66.60
46754;DHT22;32500;50.620;3.400;2023-07-13T09:23:31;22.10;67.10
46754;DHT22;32500;50.620;3.400;2023-07-13T09:26:28;22.10;66.80
46754;DHT22;32500;50.620;3.400;2023-07-13T09:29:06;22.10;66.40
46754;DHT22;32500;50.620;3.400;2023-07-13T09:31:40;22.20;66.30
46754;DHT22;32500;50.620;3.400;2023-07-13T09:34:11;22.30;66.30
46754;DHT22;32500;50.620;3.400;2023-07-13T09:36:37;22.30;66.30
46754;DHT22;32500;50.620;3.400;2023-07-13T09:39:21;22.40;65.00
46754;DHT22;32500;50.620;3.400;2023-07-13T09:44:53;22.60;61.30
46754;DHT22;32500;50.620;3.400;2023-07-13T09:52:25;22.60;61.90
46754;DHT22;32500;50.620;3.400;2023-07-13T09:54:54;22.50;66.00
46754;DHT22;32500;50.620;3.400;2023-07-13T09:57:26;22.30;67.80
46754;DHT22;32500;50.620;3.400;2023-07-13T09:59:55;22.30;70.40
46754;DHT22;32500;50.620;3.400;2023-07-13T10:07:32;22.20;74.00
46754;DHT22;32500;50.620;3.400;2023-07-13T10:10:00;22.20;73.10
46754;DHT22;32500;50.620;3.400;2023-07-13T10:12:29;22.10;75.90
46754;DHT22;32500;50.620;3.400;2023-07-13T10:14:58;22.20;74.10
46754;DHT22;32500;50.620;3.400;2023-07-13T10:17:32;22.30;74.50
46754;DHT22;32500;50.620;3.400;2023-07-13T10:20:04;22.40;72.40
46754;DHT22;32500;50.620;3.400;2023-07-13T10:25:39;22.60;71.00
46754;DHT22;32500;50.620;3.400;2023-07-13T10:30:45;22.70;68.90
46754;DHT22;32500;50.620;3.400;2023-07-13T10:33:12;22.80;68.00
46754;DHT22;32500;50.620;3.400;2023-07-13T10:35:43;22.80;66.30
46754;DHT22;32500;50.620;3.400;2023-07-13T10:38:14;22.90;64.70
46754;DHT22;32500;50.620;3.400;2023-07-13T10:41:02;23.00;62.80
46754;DHT22;32500;50.620;3.400;2023-07-13T10:43:39;23.00;64.00
46754;DHT22;32500;50.620;3.400;2023-07-13T10:46:08;22.90;64.80
46754;DHT22;32500;50.620;3.400;2023-07-13T10:48:35;22.90;65.30
46754;DHT22;32500;50.620;3.400;2023-07-13T10:51:05;23.00;65.10
46754;DHT22;32500;50.620;3.400;2023-07-13T10:53:36;23.10;63.50
46754;DHT22;32500;50.620;3.400;2023-07-13T10:56:50;23.10;60.50
46754;DHT22;32500;50.620;3.400;2023-07-13T11:04:40;22.90;65.30
46754;DHT22;32500;50.620;3.400;2023-07-13T11:07:21;22.80;65.90
46754;DHT22;32500;50.620;3.400;2023-07-13T11:09:58;22.80;66.50
46754;DHT22;32500;50.620;3.400;2023-07-13T11:17:47;22.90;68.90
46754;DHT22;32500;50.620;3.400;2023-07-13T11:22:51;23.00;66.40
46754;DHT22;32500;50.620;3.400;2023-07-13T11:25:29;22.90;65.40
46754;DHT22;32500;50.620;3.400;2023-07-13T11:30:43;23.00;65.80
46754;DHT22;32500;50.620;3.400;2023-07-13T11:36:06;23.00;66.70
46754;DHT22;32500;50.620;3.400;2023-07-13T11:38:40;23.10;63.40
46754;DHT22;32500;50.620;3.400;2023-07-13T11:41:15;23.10;63.90
46754;DHT22;32500;50.620;3.400;2023-07-13T11:43:41;23.00;60.80
46754;DHT22;32500;50.620;3.400;2023-07-13T11:48:46;23.20;62.00
46754;DHT22;32500;50.620;3.400;2023-07-13T11:51:23;23.20;61.70
46754;DHT22;32500;50.620;3.400;2023-07-13T11:53:53;23.20;60.30
46754;DHT22;32500;50.620;3.400;2023-07-13T11:56:19;23.20;61.20
46754;DHT22;32500;50.620;3.400;2023-07-13T11:58:51;23.20;60.10
46754;DHT22;32500;50.620;3.400;2023-07-13T12:01:24;23.20;60.30
46754;DHT22;32500;50.620;3.400;2023-07-13T12:03:52;23.30;61.10
46754;DHT22;32500;50.620;3.400;2023-07-13T12:06:35;23.40;61.20
46754;DHT22;32500;50.620;3.400;2023-07-13T12:09:12;23.50;60.80
46754;DHT22;32500;50.620;3.400;2023-07-13T12:11:40;23.50;58.30
46754;DHT22;32500;50.620;3.400;2023-07-13T12:14:15;23.60;59.00
46754;DHT22;32500;50.620;3.400;2023-07-13T12:16:42;23.60;56.00
46754;DHT22;32500;50.620;3.400;2023-07-13T12:19:18;23.70;54.90
46754;DHT22;32500;50.620;3.400;2023-07-13T12:21:46;23.70;56.40
46754;DHT22;32500;50.620;3.400;2023-07-13T12:24:15;23.70;54.80
46754;DHT22;32500;50.620;3.400;2023-07-13T12:26:41;23.70;52.60
46754;DHT22;32500;50.620;3.400;2023-07-13T12:29:07;23.80;54.80
46754;DHT22;32500;50.620;3.400;2023-07-13T12:31:51;23.80;52.60
46754;DHT22;32500;50.620;3.400;2023-07-13T12:34:22;23.90;51.80
46754;DHT22;32500;50.620;3.400;2023-07-13T12:37:01;23.80;53.40
46754;DHT22;32500;50.620;3.400;2023-07-13T12:39:38;23.90;54.10
46754;DHT22;32500;50.620;3.400;2023-07-13T12:42:30;23.90;50.20
46754;DHT22;32500;50.620;3.400;2023-07-13T12:45:43;23.90;50.70
46754;DHT22;32500;50.620;3.400;2023-07-13T12:47:56;23.90;52.60
46754;DHT22;32500;50.620;3.400;2023-07-13T12:50:38;23.90;51.10
46754;DHT22;32500;50.620;3.400;2023-07-13T12:53:13;23.80;52.10
46754;DHT22;32500;50.620;3.400;2023-07-13T12:55:44;23.80;50.70
46754;DHT22;32500;50.620;3.400;2023-07-13T12:58:39;23.80;50.70
46754;DHT22;32500;50.620;3.400;2023-07-13T13:01:08;23.80;50.40
46754;DHT22;32500;50.620;3.400;2023-07-13T13:03:46;23.90;50.80
46754;DHT22;32500;50.620;3.400;2023-07-13T13:08:52;23.90;52.50
46754;DHT22;32500;50.620;3.400;2023-07-13T13:11:20;24.00;52.60
46754;DHT22;32500;50.620;3.400;2023-07-13T13:13:46;23.90;52.80
46754;DHT22;32500;50.620;3.400;2023-07-13T13:18:49;23.80;52.60
46754;DHT22;32500;50.620;3.400;2023-07-13T13:21:15;23.70;50.80
46754;DHT22;32500;50.620;3.400;2023-07-13T13:23:42;23.60;52.00
46754;DHT22;32500;50.620;3.400;2023-07-13T13:26:11;23.70;52.80
46754;DHT22;32500;50.620;3.400;2023-07-13T13:28:37;23.80;53.30
46754;DHT22;32500;50.620;3.400;2023-07-13T13:31:02;23.90;54.70
46754;DHT22;32500;50.620;3.400;2023-07-13T13:33:28;24.10;54.70
46754;DHT22;32500;50.620;3.400;2023-07-13T13:35:56;24.10;53.20
46754;DHT22;32500;50.620;3.400;2023-07-13T13:38:26;24.20;51.90
46754;DHT22;32500;50.620;3.400;2023-07-13T13:40:52;24.20;51.30
46754;DHT22;32500;50.620;3.400;2023-07-13T13:43:22;24.30;48.90
46754;DHT22;32500;50.620;3.400;2023-07-13T13:45:53;24.20;48.30
46754;DHT22;32500;50.620;3.400;2023-07-13T13:48:24;24.10;46.30
46754;DHT22;32500;50.620;3.400;2023-07-13T13:50:56;24.00;48.30
46754;DHT22;32500;50.620;3.400;2023-07-13T13:53:22;24.10;48.90
46754;DHT22;32500;50.620;3.400;2023-07-13T13:55:50;24.10;49.70
46754;DHT22;32500;50.620;3.400;2023-07-13T13:58:16;24.10;47.90
46754;DHT22;32500;50.620;3.400;2023-07-13T14:00:42;24.00;48.60
46754;DHT22;32500;50.620;3.400;2023-07-13T14:03:20;23.90;48.90
46754;DHT22;32500;50.620;3.400;2023-07-13T14:05:47;24.00;49.40
46754;DHT22;32500;50.620;3.400;2023-07-13T14:08:23;24.10;48.60
46754;DHT22;32500;50.620;3.400;2023-07-13T14:10:54;24.10;46.80
46754;DHT22;32500;50.620;3.400;2023-07-13T14:13:24;24.20;47.60
46754;DHT22;32500;50.620;3.400;2023-07-13T14:15:52;24.30;47.70
46754;DHT22;32500;50.620;3.400;2023-07-13T14:18:19;24.40;48.30
46754;DHT22;32500;50.620;3.400;2023-07-13T14:20:48;24.30;46.70
46754;DHT22;32500;50.620;3.400;2023-07-13T14:23:17;24.40;47.40
46754;DHT22;32500;50.620;3.400;2023-07-13T14:25:44;24.40;48.40
46754;DHT22;32500;50.620;3.400;2023-07-13T14:28:21;24.50;47.80
46754;DHT22;32500;50.620;3.400;2023-07-13T14:30:48;24.50;47.30
46754;DHT22;32500;50.620;3.400;2023-07-13T14:33:14;24.50;46.90
46754;DHT22;32500;50.620;3.400;2023-07-13T14:35:40;24.50;46.50
46754;DHT22;32500;50.620;3.400;2023-07-13T14:38:11;24.40;46.60
46754;DHT22;32500;50.620;3.400;2023-07-13T14:40:38;24.50;47.50
46754;DHT22;32500;50.620;3.400;2023-07-13T14:43:04;24.40;47.70
46754;DHT22;32500;50.620;3.400;2023-07-13T14:45:30;24.30;47.40
46754;DHT22;32500;50.620;3.400;2023-07-13T14:47:57;24.30;48.00
46754;DHT22;32500;50.620;3.400;2023-07-13T14:50:32;24.40;48.40
46754;DHT22;32500;50.620;3.400;2023-07-13T14:52:58;24.40;49.50
46754;DHT22;32500;50.620;3.400;2023-07-13T14:55:24;24.40;49.40
46754;DHT22;32500;50.620;3.400;2023-07-13T14:57:52;24.50;49.20
46754;DHT22;32500;50.620;3.400;2023-07-13T15:00:20;24.40;47.60
46754;DHT22;32500;50.620;3.400;2023-07-13T15:02:52;24.40;48.40
46754;DHT22;32500;50.620;3.400;2023-07-13T15:05:21;24.50;49.30
46754;DHT22;32500;50.620;3.400;2023-07-13T15:07:48;24.40;48.00
46754;DHT22;32500;50.620;3.400;2023-07-13T15:10:20;24.30;47.60
46754;DHT22;32500;50.620;3.400;2023-07-13T15:12:46;24.40;47.90
46754;DHT22;32500;50.620;3.400;2023-07-13T15:15:12;24.40;48.40
46754;DHT22;32500;50.620;3.400;2023-07-13T15:17:43;24.40;47.90
46754;DHT22;32500;50.620;3.400;2023-07-13T15:20:29;24.40;47.50
46754;DHT22;32500;50.620;3.400;2023-07-13T15:22:56;24.40;48.60
46754;DHT22;32500;50.620;3.400;2023-07-13T15:25:27;24.40;47.70
46754;DHT22;32500;50.620;3.400;2023-07-13T15:27:54;24.30;46.80
46754;DHT22;32500;50.620;3.400;2023-07-13T15:30:21;24.30;47.80
46754;DHT22;32500;50.620;3.400;2023-07-13T15:32:48;24.30;45.90
46754;DHT22;32500;50.620;3.400;2023-07-13T15:35:16;24.30;44.90
46754;DHT22;32500;50.620;3.400;2023-07-13T15:37:43;24.30;45.40
46754;DHT22;32500;50.620;3.400;2023-07-13T15:40:10;24.40;45.90
46754;DHT22;32500;50.620;3.400;2023-07-13T15:42:37;24.40;46.00
46754;DHT22;32500;50.620;3.400;2023-07-13T15:45:05;24.40;46.20
46754;DHT22;32500;50.620;3.400;2023-07-13T15:47:35;24.40;46.70
46754;DHT22;32500;50.620;3.400;2023-07-13T15:50:01;24.40;46.00
46754;DHT22;32500;50.620;3.400;2023-07-13T15:52:28;24.40;46.80
46754;DHT22;32500;50.620;3.400;2023-07-13T15:54:55;24.20;46.40
46754;DHT22;32500;50.620;3.400;2023-07-13T15:57:20;24.20;47.10
46754;DHT22;32500;50.620;3.400;2023-07-13T15:59:47;24.20;46.90
46754;DHT22;32500;50.620;3.400;2023-07-13T16:02:20;24.10;46.20
46754;DHT22;32500;50.620;3.400;2023-07-13T16:04:48;24.20;47.10
46754;DHT22;32500;50.620;3.400;2023-07-13T16:07:16;24.20;47.30
46754;DHT22;32500;50.620;3.400;2023-07-13T16:09:48;24.20;46.60
46754;DHT22;32500;50.620;3.400;2023-07-13T16:12:16;24.30;47.10
46754;DHT22;32500;50.620;3.400;2023-07-13T16:14:42;24.30;47.90
46754;DHT22;32500;50.620;3.400;2023-07-13T16:17:12;24.20;46.90
46754;DHT22;32500;50.620;3.400;2023-07-13T16:19:38;24.10;46.50
46754;DHT22;32500;50.620;3.400;2023-07-13T16:22:05;24.10;46.70
46754;DHT22;32500;50.620;3.400;2023-07-13T16:24:35;24.10;47.50
46754;DHT22;32500;50.620;3.400;2023-07-13T16:27:01;24.10;46.30
46754;DHT22;32500;50.620;3.400;2023-07-13T16:29:30;24.20;47.60
46754;DHT22;32500;50.620;3.400;2023-07-13T16:32:10;24.10;48.10
46754;DHT22;32500;50.620;3.400;2023-07-13T16:34:37;24.00;47.60